createdAt,value
2023-03-13T00:01:03.761Z,4.75
2023-03-13T00:03:30.958Z,4.80
2023-03-13T00:05:58.788Z,4.20
2023-03-13T00:08:26.659Z,4.63
2023-03-13T00:10:53.779Z,4.78
2023-03-13T00:13:21.021Z,4.63
2023-03-13T00:15:48.165Z,5.13
2023-03-13T00:18:15.306Z,4.70
2023-03-13T00:20:42.442Z,4.78
2023-03-13T00:23:09.649Z,5.10
2023-03-13T00:25:36.813Z,6.22
2023-03-13T00:28:04.006Z,6.47
2023-03-13T00:30:31.189Z,5.13
2023-03-13T00:32:58.788Z,5.57
2023-03-13T00:35:26.014Z,5.75
2023-03-13T00:37:53.269Z,5.72
2023-03-13T00:40:20.419Z,4.70
2023-03-13T00:42:47.623Z,5.07
2023-03-13T00:45:14.744Z,4.13
2023-03-13T00:47:42.207Z,3.92
2023-03-13T00:50:09.518Z,4.28
2023-03-13T00:52:36.663Z,3.47
2023-03-13T00:55:04.458Z,4.47
2023-03-13T00:57:31.669Z,4.15
2023-03-13T00:59:58.858Z,3.97
2023-03-13T01:02:26.077Z,3.58
2023-03-13T01:04:54.198Z,3.72
2023-03-13T01:07:21.427Z,3.80
2023-03-13T01:09:48.544Z,3.45
2023-03-13T01:12:15.730Z,3.45
2023-03-13T01:14:42.899Z,4.28
2023-03-13T01:17:10.076Z,4.05
2023-03-13T01:19:37.196Z,3.83
2023-03-13T01:22:04.317Z,3.45
2023-03-13T01:24:31.463Z,3.42
2023-03-13T01:26:59.184Z,4.03
2023-03-13T01:29:26.377Z,3.85
2023-03-13T01:31:53.591Z,3.90
2023-03-13T01:34:20.808Z,3.45
2023-03-13T01:36:50.604Z,3.30
2023-03-13T01:39:17.794Z,4.00
2023-03-13T01:41:45.180Z,3.90
2023-03-13T01:44:23.786Z,3.63
2023-03-13T01:46:51.053Z,3.47
2023-03-13T01:49:38.561Z,3.78
2023-03-13T01:52:15.387Z,3.70
2023-03-13T01:54:51.406Z,3.85
2023-03-13T01:57:22.181Z,3.35
2023-03-13T01:59:54.798Z,3.50
2023-03-13T02:02:22.899Z,3.40
2023-03-13T02:04:53.552Z,3.13
2023-03-13T02:07:24.438Z,3.50
2023-03-13T02:09:54.254Z,3.20
2023-03-13T02:12:31.979Z,3.45
2023-03-13T02:15:00.202Z,3.85
2023-03-13T02:17:27.519Z,3.75
2023-03-13T02:19:54.773Z,4.35
2023-03-13T02:22:29.875Z,3.25
2023-03-13T02:25:08.025Z,3.35
2023-03-13T02:27:35.212Z,2.92
2023-03-13T02:30:02.416Z,3.58
2023-03-13T02:32:30.882Z,3.40
2023-03-13T02:35:02.508Z,3.58
2023-03-13T02:37:31.109Z,3.10
2023-03-13T02:40:00.356Z,3.78
2023-03-13T02:42:28.569Z,3.53
2023-03-13T02:44:55.812Z,3.78
2023-03-13T02:47:23.967Z,3.47
2023-03-13T02:49:51.168Z,3.00
2023-03-13T02:52:26.739Z,3.60
2023-03-13T02:54:57.093Z,4.47
2023-03-13T02:57:24.423Z,5.28
2023-03-13T02:59:51.553Z,4.20
2023-03-13T03:02:18.750Z,3.10
2023-03-13T03:04:46.035Z,4.40
2023-03-13T03:07:13.416Z,2.88
2023-03-13T03:09:40.649Z,3.08
2023-03-13T03:12:08.083Z,3.50
2023-03-13T03:14:35.261Z,4.30
2023-03-13T03:17:02.411Z,3.50
2023-03-13T03:19:29.549Z,3.72
2023-03-13T03:21:56.743Z,3.30
2023-03-13T03:24:23.922Z,3.25
2023-03-13T03:26:51.184Z,3.30
2023-03-13T03:29:19.013Z,3.20
2023-03-13T03:31:46.287Z,3.85
2023-03-13T03:34:13.541Z,3.55
2023-03-13T03:36:40.688Z,3.60
2023-03-13T03:39:07.862Z,2.95
2023-03-13T03:41:35.816Z,3.40
2023-03-13T03:44:03.027Z,3.00
2023-03-13T03:46:30.311Z,4.25
2023-03-13T03:48:57.492Z,2.95
2023-03-13T03:51:24.662Z,2.85
2023-03-13T03:53:51.884Z,2.88
2023-03-13T03:56:19.105Z,3.47
2023-03-13T03:58:46.250Z,3.13
2023-03-13T04:01:13.406Z,3.03
2023-03-13T04:03:40.653Z,3.55
2023-03-13T04:06:07.956Z,3.00
2023-03-13T04:08:35.185Z,2.90
2023-03-13T04:11:03.119Z,2.70
2023-03-13T04:13:30.502Z,3.42
2023-03-13T04:15:57.845Z,2.45
2023-03-13T04:18:25.012Z,2.83
2023-03-13T04:21:00.335Z,3.00
2023-03-13T04:23:27.512Z,2.83
2023-03-13T04:25:54.645Z,2.78
2023-03-13T04:28:21.795Z,2.67
2023-03-13T04:30:48.971Z,2.40
2023-03-13T04:33:16.213Z,2.50
2023-03-13T04:35:44.128Z,3.17
2023-03-13T04:38:11.378Z,2.80
2023-03-13T04:40:38.495Z,3.25
2023-03-13T04:43:05.669Z,2.15
2023-03-13T04:45:33.060Z,2.20
2023-03-13T04:48:00.194Z,2.42
2023-03-13T04:50:27.348Z,2.50
2023-03-13T04:52:54.467Z,2.70
2023-03-13T04:55:21.623Z,1.98
2023-03-13T04:57:48.818Z,2.67
2023-03-13T05:00:16.285Z,3.05
2023-03-13T05:02:43.428Z,2.55
2023-03-13T05:05:10.748Z,2.70
2023-03-13T05:07:37.898Z,2.60
2023-03-13T05:10:05.682Z,2.55
2023-03-13T05:12:32.850Z,1.95
2023-03-13T05:15:00.050Z,2.60
2023-03-13T05:17:27.189Z,2.22
2023-03-13T05:19:54.941Z,2.55
2023-03-13T05:22:22.050Z,2.55
2023-03-13T05:24:49.196Z,2.95
2023-03-13T05:27:16.334Z,2.42
2023-03-13T05:29:43.485Z,2.17
2023-03-13T05:32:10.613Z,2.45
2023-03-13T05:34:37.772Z,2.50
2023-03-13T05:37:05.003Z,2.55
2023-03-13T05:39:33.302Z,2.92
2023-03-13T05:42:00.462Z,2.17
2023-03-13T05:44:27.950Z,1.75
2023-03-13T05:46:55.067Z,3.03
2023-03-13T05:49:22.628Z,2.35
2023-03-13T05:51:49.785Z,2.30
2023-03-13T05:54:16.968Z,2.40
2023-03-13T05:56:45.037Z,2.17
2023-03-13T05:59:12.205Z,1.85
2023-03-13T06:01:39.562Z,2.13
2023-03-13T06:04:06.834Z,2.00
2023-03-13T06:06:34.032Z,1.83
2023-03-13T06:09:01.185Z,1.90
2023-03-13T06:11:28.414Z,1.80
2023-03-13T06:13:55.608Z,1.60
2023-03-13T06:16:22.783Z,1.60
2023-03-13T06:18:49.962Z,1.88
2023-03-13T06:21:17.160Z,1.40
2023-03-13T06:23:44.396Z,1.52
2023-03-13T06:26:11.612Z,1.27
2023-03-13T06:28:38.958Z,1.65
2023-03-13T06:31:07.377Z,1.00
2023-03-13T06:33:35.098Z,1.00
2023-03-13T06:36:02.709Z,1.00
2023-03-13T06:38:30.458Z,0.77
2023-03-13T06:40:57.646Z,0.80
2023-03-13T06:43:24.787Z,0.90
2023-03-13T06:45:51.983Z,0.70
2023-03-13T06:48:19.582Z,0.82
2023-03-13T06:50:47.033Z,0.52
2023-03-13T06:53:19.198Z,0.80
2023-03-13T06:55:46.727Z,0.60
2023-03-13T06:58:25.447Z,0.40
2023-03-13T07:00:58.225Z,0.60
2023-03-13T07:03:25.710Z,0.60
2023-03-13T07:05:57.102Z,0.90
2023-03-13T07:08:25.655Z,0.60
2023-03-13T07:10:53.189Z,0.98
2023-03-13T07:13:21.836Z,1.02
2023-03-13T07:15:48.997Z,0.75
2023-03-13T07:18:16.455Z,0.70
2023-03-13T07:20:44.011Z,0.57
2023-03-13T07:23:11.350Z,1.27
2023-03-13T07:25:38.684Z,1.33
2023-03-13T07:28:05.956Z,1.50
2023-03-13T07:30:33.149Z,0.70
2023-03-13T07:33:00.477Z,0.75
2023-03-13T07:35:28.040Z,1.20
2023-03-13T07:37:55.205Z,1.23
2023-03-13T07:40:22.584Z,1.27
2023-03-13T07:42:49.809Z,0.93
2023-03-13T07:45:17.008Z,1.10
2023-03-13T07:47:44.120Z,1.10
2023-03-13T07:50:11.642Z,1.48
2023-03-13T07:52:38.820Z,1.17
2023-03-13T07:55:06.617Z,0.90
2023-03-13T07:57:34.124Z,0.80
2023-03-13T08:00:01.337Z,0.55
2023-03-13T08:02:28.584Z,0.60
2023-03-13T08:04:58.515Z,0.60
2023-03-13T08:07:26.021Z,0.50
2023-03-13T08:09:53.225Z,0.52
2023-03-13T08:12:20.447Z,0.90
2023-03-13T08:14:47.587Z,0.90
2023-03-13T08:17:15.076Z,0.50
2023-03-13T08:19:42.230Z,0.63
2023-03-13T08:22:09.349Z,0.40
2023-03-13T08:24:36.540Z,0.60
2023-03-13T08:27:03.685Z,0.50
2023-03-13T08:29:30.822Z,0.60
2023-03-13T08:31:58.051Z,0.45
2023-03-13T08:34:25.250Z,0.63
2023-03-13T08:36:52.970Z,0.57
2023-03-13T08:39:21.044Z,0.40
2023-03-13T08:41:48.534Z,0.38
2023-03-13T08:44:16.907Z,0.40
2023-03-13T08:46:44.559Z,0.28
2023-03-13T08:49:12.533Z,0.20
2023-03-13T08:51:40.577Z,0.47
2023-03-13T08:54:07.803Z,0.45
2023-03-13T08:56:35.363Z,0.30
2023-03-13T08:59:04.449Z,0.32
2023-03-13T09:01:33.526Z,0.15
2023-03-13T09:04:03.877Z,0.20
2023-03-13T09:06:31.616Z,0.28
2023-03-13T09:08:59.090Z,0.20
2023-03-13T09:11:26.809Z,0.30
2023-03-13T09:13:55.652Z,0.40
2023-03-13T09:16:23.788Z,0.20
2023-03-13T09:18:51.721Z,0.20
2023-03-13T09:21:20.709Z,0.20
2023-03-13T09:23:47.920Z,0.70
2023-03-13T09:26:15.620Z,0.80
2023-03-13T09:28:43.143Z,2.25
2023-03-13T09:31:11.407Z,0.63
2023-03-13T09:33:39.113Z,0.70
2023-03-13T09:36:06.904Z,0.30
2023-03-13T09:38:34.401Z,1.15
2023-03-13T09:41:07.657Z,1.52
2023-03-13T09:43:48.175Z,1.27
2023-03-13T09:46:32.672Z,0.20
2023-03-13T09:49:02.018Z,0.30
2023-03-13T09:51:31.762Z,0.32
2023-03-13T09:54:10.152Z,0.40
2023-03-13T09:56:44.077Z,0.55
2023-03-13T09:59:23.264Z,0.73
2023-03-13T10:01:51.315Z,0.40
2023-03-13T10:04:18.486Z,0.63
2023-03-13T10:06:47.146Z,0.45
2023-03-13T10:09:17.672Z,0.40
2023-03-13T10:11:58.976Z,0.38
2023-03-13T10:14:48.710Z,0.47
2023-03-13T10:17:33.750Z,0.80
2023-03-13T10:20:21.229Z,0.40
2023-03-13T10:22:49.111Z,0.30
2023-03-13T10:25:28.553Z,0.30
2023-03-13T10:27:55.921Z,0.50
2023-03-13T10:30:35.453Z,0.20
2023-03-13T10:33:19.337Z,0.32
2023-03-13T10:38:13.560Z,0.30
2023-03-13T10:40:42.921Z,0.63
2023-03-13T10:43:29.592Z,0.57
2023-03-13T10:45:56.822Z,0.50
2023-03-13T10:48:25.173Z,0.47
2023-03-13T10:50:54.118Z,0.60
2023-03-13T10:53:34.203Z,0.40
2023-03-13T10:56:04.871Z,0.75
2023-03-13T10:58:36.555Z,0.60
2023-03-13T11:01:32.073Z,0.60
2023-03-13T11:04:00.774Z,0.50
2023-03-13T11:06:28.062Z,0.65
2023-03-13T11:09:03.241Z,0.60
2023-03-13T11:11:31.221Z,0.80
2023-03-13T11:14:08.966Z,0.40
2023-03-13T11:16:39.913Z,0.70
2023-03-13T11:19:26.073Z,0.38
2023-03-13T11:22:15.502Z,0.50
2023-03-13T11:24:50.321Z,0.60
2023-03-13T11:27:28.370Z,0.60
2023-03-13T11:29:58.736Z,0.57
2023-03-13T11:32:49.051Z,0.63
2023-03-13T11:35:28.178Z,0.80
2023-03-13T11:37:57.565Z,0.50
2023-03-13T11:40:34.052Z,0.55
2023-03-13T11:43:27.622Z,0.80
2023-03-13T11:45:54.830Z,0.55
2023-03-13T11:48:28.079Z,0.55
2023-03-13T11:51:14.208Z,0.70
2023-03-13T11:53:47.571Z,0.80
2023-03-13T11:56:18.216Z,0.70
2023-03-13T11:58:51.819Z,0.60
2023-03-13T12:03:57.594Z,0.77
2023-03-13T12:06:36.860Z,0.75
2023-03-13T12:09:16.391Z,0.70
2023-03-13T12:11:52.753Z,0.95
2023-03-13T12:14:25.994Z,1.00
2023-03-13T12:16:56.087Z,1.00
2023-03-13T12:19:28.054Z,0.80
2023-03-13T12:21:57.470Z,0.93
2023-03-13T12:24:32.048Z,1.10
2023-03-13T12:27:19.129Z,1.00
2023-03-13T12:29:52.328Z,0.80
2023-03-13T12:32:35.956Z,1.13
2023-03-13T12:35:05.853Z,1.50
2023-03-13T12:37:48.613Z,0.70
2023-03-13T12:40:34.546Z,1.45
2023-03-13T12:43:07.042Z,0.70
2023-03-13T12:45:36.271Z,0.90
2023-03-13T12:48:09.629Z,0.90
2023-03-13T12:50:52.066Z,1.15
2023-03-13T12:53:25.655Z,0.73
2023-03-13T12:55:59.065Z,1.02
2023-03-13T12:58:26.318Z,0.98
2023-03-13T13:00:54.083Z,1.10
2023-03-13T13:03:25.155Z,1.17
2023-03-13T13:05:59.907Z,0.90
2023-03-13T13:08:27.784Z,1.35
2023-03-13T13:10:55.018Z,1.00
2023-03-13T13:13:31.041Z,1.20
2023-03-13T13:16:03.244Z,1.23
2023-03-13T13:18:32.197Z,1.20
2023-03-13T13:21:02.458Z,1.27
2023-03-13T13:23:34.243Z,1.20
2023-03-13T13:26:20.238Z,0.82
2023-03-13T13:28:47.437Z,1.10
2023-03-13T13:31:33.613Z,1.10
2023-03-13T13:34:00.826Z,1.00
2023-03-13T13:36:28.886Z,0.98
2023-03-13T13:38:56.273Z,1.10
2023-03-13T13:41:26.091Z,1.15
2023-03-13T13:44:12.445Z,0.90
2023-03-13T13:46:45.297Z,0.93
2023-03-13T13:49:17.755Z,1.10
2023-03-13T13:52:04.861Z,0.90
2023-03-13T13:54:55.257Z,0.95
2023-03-13T13:57:24.320Z,1.00
2023-03-13T14:00:10.701Z,0.98
2023-03-13T14:02:45.326Z,1.13
2023-03-13T14:05:29.078Z,1.10
2023-03-13T14:08:14.844Z,3.53
2023-03-13T14:10:43.177Z,1.27
2023-03-13T14:13:13.155Z,1.38
2023-03-13T14:15:43.071Z,1.20
2023-03-13T14:18:14.501Z,1.35
2023-03-13T14:20:50.712Z,1.00
2023-03-13T14:23:29.563Z,0.80
2023-03-13T14:25:56.718Z,1.17
2023-03-13T14:28:27.813Z,0.90
2023-03-13T14:30:56.627Z,0.95
2023-03-13T14:33:24.055Z,1.15
2023-03-13T14:35:51.735Z,1.40
2023-03-13T14:38:20.368Z,1.40
2023-03-13T14:40:47.927Z,1.15
2023-03-13T14:43:34.173Z,1.50
2023-03-13T14:46:01.736Z,1.58
2023-03-13T14:48:35.286Z,1.20
2023-03-13T14:51:14.691Z,1.27
2023-03-13T14:53:53.759Z,1.10
2023-03-13T14:56:21.105Z,2.00
2023-03-13T14:58:51.686Z,1.10
2023-03-13T15:01:24.476Z,1.00
2023-03-13T15:03:52.494Z,1.20
2023-03-13T15:06:21.377Z,1.48
2023-03-13T15:08:50.000Z,1.33
2023-03-13T15:11:21.938Z,1.40
2023-03-13T15:13:49.238Z,1.25
2023-03-13T15:16:20.285Z,1.08
2023-03-13T15:18:48.079Z,1.10
2023-03-13T15:21:16.882Z,1.10
2023-03-13T15:23:47.339Z,1.48
2023-03-13T15:26:14.698Z,1.67
2023-03-13T15:28:41.839Z,1.50
2023-03-13T15:31:11.057Z,1.50
2023-03-13T15:33:38.248Z,1.48
2023-03-13T15:36:05.586Z,1.70
2023-03-13T15:38:33.070Z,1.67
2023-03-13T15:41:00.257Z,1.20
2023-03-13T15:43:30.071Z,1.40
2023-03-13T15:45:57.356Z,1.20
2023-03-13T15:48:25.777Z,1.00
2023-03-13T15:50:53.751Z,1.10
2023-03-13T15:53:23.833Z,1.02
2023-03-13T15:55:51.636Z,3.22
2023-03-13T15:58:19.358Z,1.52
2023-03-13T16:00:48.314Z,1.63
2023-03-13T16:03:16.771Z,1.63
2023-03-13T16:05:44.395Z,1.60
2023-03-13T16:08:34.254Z,1.30
2023-03-13T16:11:02.553Z,1.52
2023-03-13T16:13:29.735Z,1.55
2023-03-13T16:15:56.874Z,1.50
2023-03-13T16:18:24.873Z,1.65
2023-03-13T16:20:53.257Z,1.55
2023-03-13T16:23:20.440Z,1.42
2023-03-13T16:25:48.587Z,1.30
2023-03-13T16:28:16.426Z,1.83
2023-03-13T16:30:43.853Z,1.30
2023-03-13T16:33:11.633Z,1.40
2023-03-13T16:35:39.201Z,2.53
2023-03-13T16:38:08.472Z,14.27
2023-03-13T16:40:36.124Z,2.50
2023-03-13T16:43:03.333Z,5.80
2023-03-13T16:45:30.687Z,3.17
2023-03-13T16:47:57.851Z,1.92
2023-03-13T16:50:25.048Z,1.58
2023-03-13T16:52:52.680Z,1.88
2023-03-13T16:55:20.320Z,2.10
2023-03-13T16:57:47.662Z,1.60
2023-03-13T17:00:16.433Z,1.60
2023-03-13T17:02:48.726Z,1.85
2023-03-13T17:05:17.691Z,3.13
2023-03-13T17:07:48.790Z,3.38
2023-03-13T17:10:20.755Z,4.15
2023-03-13T17:12:48.220Z,3.35
2023-03-13T17:15:15.520Z,3.42
2023-03-13T17:17:44.250Z,3.33
2023-03-13T17:20:16.421Z,13.23
2023-03-13T17:22:43.725Z,4.72
2023-03-13T17:25:10.950Z,3.88
2023-03-13T17:27:38.176Z,2.50
2023-03-13T17:30:16.255Z,3.72
2023-03-13T17:32:43.589Z,3.97
2023-03-13T17:35:11.031Z,2.47
2023-03-13T17:37:38.315Z,1.17
2023-03-13T17:40:15.355Z,1.45
2023-03-13T17:42:42.784Z,1.00
2023-03-13T17:45:10.200Z,1.17
2023-03-13T17:47:37.478Z,0.95
2023-03-13T17:50:05.244Z,1.10
2023-03-13T17:52:32.402Z,0.63
2023-03-13T17:54:59.574Z,0.50
2023-03-13T17:57:27.005Z,0.60
2023-03-13T17:59:54.505Z,0.95
2023-03-13T18:02:22.352Z,0.40
2023-03-13T18:04:49.751Z,0.70
2023-03-13T18:07:18.897Z,0.70
2023-03-13T18:09:47.978Z,0.77
2023-03-13T18:12:15.274Z,1.10
2023-03-13T18:14:43.112Z,1.67
2023-03-13T18:17:18.179Z,1.10
2023-03-13T18:19:45.800Z,1.20
2023-03-13T18:22:14.765Z,1.27
2023-03-13T18:24:42.419Z,1.00
2023-03-13T18:27:13.526Z,1.15
2023-03-13T18:29:40.894Z,2.25
2023-03-13T18:32:08.667Z,1.48
2023-03-13T18:34:35.917Z,1.40
2023-03-13T18:37:03.934Z,2.00
2023-03-13T18:39:32.166Z,2.15
2023-03-13T18:41:59.946Z,1.95
2023-03-13T18:44:27.086Z,1.65
2023-03-13T18:46:54.323Z,1.63
2023-03-13T18:49:22.419Z,1.90
2023-03-13T18:51:50.515Z,2.30
2023-03-13T18:54:17.853Z,3.13
2023-03-13T18:56:45.867Z,2.97
2023-03-13T18:59:13.799Z,2.70
2023-03-13T19:01:40.992Z,3.20
2023-03-13T19:04:08.229Z,2.80
2023-03-13T19:06:36.564Z,2.70
2023-03-13T19:09:41.567Z,2.40
2023-03-13T19:12:04.624Z,2.58
2023-03-13T19:14:31.751Z,3.35
2023-03-13T19:16:59.031Z,3.40
2023-03-13T19:19:26.489Z,4.20
2023-03-13T19:21:57.261Z,3.30
2023-03-13T19:24:26.885Z,3.50
2023-03-13T19:26:58.622Z,3.30
2023-03-13T19:29:27.285Z,3.88
2023-03-13T19:31:54.816Z,3.60
2023-03-13T19:34:22.123Z,6.50
2023-03-13T19:36:50.269Z,3.78
2023-03-13T19:39:19.190Z,3.15
2023-03-13T19:41:48.437Z,4.72
2023-03-13T19:44:16.195Z,3.50
2023-03-13T19:46:43.825Z,4.40
2023-03-13T19:49:12.617Z,5.60
2023-03-13T19:51:39.855Z,4.07
2023-03-13T19:54:07.200Z,6.45
2023-03-13T19:56:34.544Z,4.50
2023-03-13T19:59:05.644Z,4.88
2023-03-13T20:01:32.996Z,4.10
2023-03-13T20:04:00.326Z,3.92
2023-03-13T20:06:28.876Z,2.53
2023-03-13T20:08:57.075Z,3.13
2023-03-13T20:11:24.669Z,3.33
2023-03-13T20:13:52.047Z,3.15
2023-03-13T20:16:19.259Z,2.85
2023-03-13T20:18:48.865Z,3.70
2023-03-13T20:21:17.252Z,3.20
2023-03-13T20:23:45.323Z,4.45
2023-03-13T20:26:13.370Z,5.78
2023-03-13T20:28:41.735Z,7.25
2023-03-13T20:31:09.358Z,6.03
2023-03-13T20:33:37.783Z,6.50
2023-03-13T20:36:11.542Z,3.03
2023-03-13T20:38:39.295Z,3.25
2023-03-13T20:41:06.445Z,2.10
2023-03-13T20:43:33.759Z,2.42
2023-03-13T20:46:01.169Z,3.60
2023-03-13T20:48:28.671Z,2.90
2023-03-13T20:50:56.915Z,3.00
2023-03-13T20:53:24.952Z,2.83
2023-03-13T20:55:52.774Z,1.92
2023-03-13T20:58:20.576Z,3.05
2023-03-13T21:00:48.326Z,2.63
2023-03-13T21:03:17.396Z,2.58
2023-03-13T21:05:45.275Z,2.97
2023-03-13T21:08:14.926Z,3.10
2023-03-13T21:10:42.549Z,2.90
2023-03-13T21:13:10.338Z,3.10
2023-03-13T21:15:37.741Z,3.70
2023-03-13T21:18:05.056Z,3.40
2023-03-13T21:20:32.178Z,2.70
2023-03-13T21:22:59.339Z,3.47
2023-03-13T21:25:26.634Z,4.10
2023-03-13T21:27:53.807Z,5.35
2023-03-13T21:30:22.235Z,5.18
2023-03-13T21:32:49.550Z,4.90
2023-03-13T21:35:16.950Z,5.05
2023-03-13T21:37:44.209Z,4.95
2023-03-13T21:40:11.822Z,4.78
2023-03-13T21:42:39.049Z,4.15
2023-03-13T21:45:06.764Z,4.30
2023-03-13T21:47:36.928Z,4.75
2023-03-13T21:50:05.457Z,4.47
2023-03-13T21:52:34.423Z,1.10
2023-03-13T21:55:04.024Z,0.98
2023-03-13T21:57:31.235Z,0.88
2023-03-13T21:59:58.413Z,0.63
2023-03-13T22:02:25.615Z,0.52
2023-03-13T22:04:52.792Z,0.45
2023-03-13T22:07:19.980Z,0.52
2023-03-13T22:09:47.523Z,0.20
2023-03-13T22:12:14.659Z,0.98
2023-03-13T22:14:42.139Z,0.88
2023-03-13T22:17:09.465Z,0.60
2023-03-13T22:19:36.722Z,1.05
2023-03-13T22:22:03.901Z,0.45
2023-03-13T22:24:31.060Z,0.60
2023-03-13T22:26:58.204Z,0.57
2023-03-13T22:29:30.675Z,0.50
2023-03-13T22:31:58.228Z,0.50
2023-03-13T22:34:25.407Z,1.00
2023-03-13T22:36:52.599Z,0.73
2023-03-13T22:39:20.694Z,0.60
2023-03-13T22:41:48.148Z,0.50
2023-03-13T22:44:15.320Z,0.73
2023-03-13T22:46:42.445Z,1.20
2023-03-13T22:49:09.620Z,0.90
2023-03-13T22:51:36.802Z,0.90
2023-03-13T22:54:04.089Z,0.90
2023-03-13T22:56:31.209Z,0.77
2023-03-13T22:58:58.377Z,0.90
2023-03-13T23:01:26.557Z,0.80
2023-03-13T23:03:53.793Z,0.90
2023-03-13T23:06:24.966Z,1.13
2023-03-13T23:08:52.228Z,1.00
2023-03-13T23:11:20.092Z,0.90
2023-03-13T23:13:47.315Z,1.10
2023-03-13T23:16:14.790Z,0.80
2023-03-13T23:18:42.126Z,0.80
2023-03-13T23:21:11.084Z,1.17
2023-03-13T23:23:38.538Z,1.45
2023-03-13T23:26:06.947Z,1.20
2023-03-13T23:28:34.823Z,1.48
2023-03-13T23:31:08.737Z,1.10
2023-03-13T23:33:35.937Z,1.10
2023-03-13T23:36:10.396Z,1.02
2023-03-13T23:38:37.696Z,1.30
2023-03-13T23:41:08.894Z,1.20
2023-03-13T23:43:36.703Z,0.93
2023-03-13T23:46:04.484Z,1.42
2023-03-13T23:48:31.897Z,1.15
2023-03-13T23:50:59.126Z,1.23
2023-03-13T23:53:26.423Z,1.10
2023-03-13T23:55:57.764Z,1.08
2023-03-13T23:58:25.328Z,1.00
